WAT6635 KDFW-MMOX
Flight info
| Callsign | WAT6635 |
|---|---|
| Flight time | 2h 19m |
| Altitude | 35000 |
| Route | NELYN6 HOARY DCT LOCOE DCT BRO DCT IPRUL UT151 VER/N0468F360 UT151 LEXUR DCT OAX |
| Aircraft | CRJX/M-SDFGIRWY/S |
Departure
| Time | 2026-05-08 20:12 |
|---|---|
| Airport | Dallas Fort Worth International Airport (KDFW) |
Arrival
| Time | 2026-05-08 22:32 |
|---|---|
| Airport | Xoxocotlán International Airport (MMOX) |
| Time | Latitude | Longitude | Altitude | Speed | Heading |
|---|---|---|---|---|---|
| 2026-05-08 19:43 | 32.88778 | -97.03522 | 596 ft | 0 kts | 114° |
| 2026-05-08 20:03 | 32.88777 | -97.03519 | 596 ft | 4 kts | 112° |
| 2026-05-08 20:03 | 32.88783 | -97.03547 | 603 ft | 4 kts | 85° |
| 2026-05-08 20:03 | 32.88774 | -97.03574 | 596 ft | 4 kts | 52° |
| 2026-05-08 20:04 | 32.88763 | -97.03589 | 596 ft | 1 kts | 40° |
| 2026-05-08 20:05 | 32.88763 | -97.03588 | 596 ft | 0 kts | 40° |
| 2026-05-08 20:06 | 32.88783 | -97.03569 | 595 ft | 8 kts | 38° |
| 2026-05-08 20:06 | 32.88829 | -97.03526 | 596 ft | 9 kts | 31° |
| 2026-05-08 20:06 | 32.88929 | -97.03471 | 596 ft | 18 kts | 24° |
| 2026-05-08 20:06 | 32.88974 | -97.03354 | 596 ft | 16 kts | 73° |
| 2026-05-08 20:07 | 32.89070 | -97.03320 | 596 ft | 20 kts | 0° |
| 2026-05-08 20:07 | 32.89227 | -97.03320 | 596 ft | 23 kts | 0° |
| 2026-05-08 20:07 | 32.89381 | -97.03320 | 596 ft | 22 kts | 0° |
| 2026-05-08 20:07 | 32.89531 | -97.03317 | 596 ft | 21 kts | 1° |
| 2026-05-08 20:08 | 32.89682 | -97.03315 | 596 ft | 24 kts | 1° |
| 2026-05-08 20:08 | 32.89867 | -97.03316 | 596 ft | 29 kts | 360° |
| 2026-05-08 20:08 | 32.90070 | -97.03315 | 596 ft | 29 kts | 0° |
| 2026-05-08 20:08 | 32.90266 | -97.03313 | 596 ft | 28 kts | 0° |
| 2026-05-08 20:09 | 32.90454 | -97.03313 | 596 ft | 27 kts | 360° |
| 2026-05-08 20:09 | 32.90635 | -97.03312 | 596 ft | 26 kts | 0° |
| 2026-05-08 20:09 | 32.90809 | -97.03312 | 596 ft | 25 kts | 0° |
| 2026-05-08 20:09 | 32.90977 | -97.03306 | 596 ft | 23 kts | 18° |
| 2026-05-08 20:10 | 32.91132 | -97.03275 | 596 ft | 22 kts | 360° |
| 2026-05-08 20:10 | 32.91285 | -97.03276 | 596 ft | 22 kts | 360° |
| 2026-05-08 20:10 | 32.91431 | -97.03275 | 596 ft | 21 kts | 1° |
| 2026-05-08 20:10 | 32.91559 | -97.03243 | 596 ft | 15 kts | 62° |
| 2026-05-08 20:11 | 32.91560 | -97.03139 | 596 ft | 12 kts | 93° |
| 2026-05-08 20:11 | 32.91553 | -97.03026 | 596 ft | 15 kts | 111° |
| 2026-05-08 20:11 | 32.91436 | -97.02992 | 596 ft | 32 kts | 178° |
| 2026-05-08 20:11 | 32.90972 | -97.02991 | 596 ft | 100 kts | 180° |
| 2026-05-08 20:12 | 32.90070 | -97.02997 | 597 ft | 156 kts | 180° |
| 2026-05-08 20:12 | 32.88896 | -97.03003 | 1047 ft | 167 kts | 180° |
| 2026-05-08 20:12 | 32.87752 | -97.02992 | 1905 ft | 164 kts | 178° |
| 2026-05-08 20:12 | 32.86606 | -97.02996 | 2598 ft | 169 kts | 179° |
| 2026-05-08 20:13 | 32.85374 | -97.02985 | 3098 ft | 184 kts | 180° |
| 2026-05-08 20:13 | 32.84044 | -97.02975 | 3617 ft | 198 kts | 181° |
| 2026-05-08 20:13 | 32.82615 | -97.02972 | 4113 ft | 216 kts | 182° |
| 2026-05-08 20:13 | 32.81033 | -97.02983 | 4611 ft | 238 kts | 183° |
| 2026-05-08 20:14 | 32.79317 | -97.02993 | 5243 ft | 255 kts | 183° |
| 2026-05-08 20:14 | 32.77537 | -97.03005 | 6016 ft | 262 kts | 184° |
| 2026-05-08 20:14 | 32.75705 | -97.03021 | 6885 ft | 264 kts | 184° |
| 2026-05-08 20:14 | 32.73857 | -97.03023 | 7716 ft | 266 kts | 184° |
| 2026-05-08 20:15 | 32.72007 | -97.03002 | 8610 ft | 267 kts | 184° |
| 2026-05-08 20:15 | 32.70135 | -97.02756 | 9415 ft | 277 kts | 170° |
| 2026-05-08 20:15 | 32.68310 | -97.01953 | 10210 ft | 283 kts | 162° |
| 2026-05-08 20:15 | 32.66499 | -97.00971 | 10989 ft | 289 kts | 161° |
| 2026-05-08 20:16 | 32.64657 | -96.99981 | 11791 ft | 293 kts | 161° |
| 2026-05-08 20:16 | 32.62804 | -96.98924 | 12554 ft | 298 kts | 161° |
| 2026-05-08 20:16 | 32.60840 | -96.98304 | 13202 ft | 289 kts | 188° |
| 2026-05-08 20:16 | 32.58939 | -96.98874 | 13852 ft | 284 kts | 210° |
| 2026-05-08 20:17 | 32.57138 | -97.00003 | 14071 ft | 303 kts | 214° |
| 2026-05-08 20:17 | 32.55249 | -97.01275 | 14323 ft | 321 kts | 215° |
| 2026-05-08 20:17 | 32.53277 | -97.02645 | 14572 ft | 336 kts | 215° |
| 2026-05-08 20:17 | 32.51237 | -97.04068 | 15018 ft | 343 kts | 214° |
| 2026-05-08 20:18 | 32.49172 | -97.05436 | 15572 ft | 346 kts | 213° |
| 2026-05-08 20:18 | 32.47032 | -97.06798 | 16120 ft | 350 kts | 213° |
| 2026-05-08 20:18 | 32.44886 | -97.08171 | 16657 ft | 353 kts | 213° |
| 2026-05-08 20:18 | 32.42720 | -97.09555 | 17191 ft | 355 kts | 214° |
| 2026-05-08 20:19 | 32.40535 | -97.10952 | 17718 ft | 357 kts | 213° |
| 2026-05-08 20:19 | 32.38341 | -97.12355 | 18236 ft | 359 kts | 213° |
| 2026-05-08 20:19 | 32.36132 | -97.13764 | 18678 ft | 361 kts | 213° |
| 2026-05-08 20:19 | 32.33912 | -97.15179 | 19117 ft | 363 kts | 213° |
| 2026-05-08 20:20 | 32.31683 | -97.16604 | 19571 ft | 366 kts | 213° |
| 2026-05-08 20:20 | 32.29432 | -97.18020 | 20027 ft | 369 kts | 210° |
| 2026-05-08 20:20 | 32.26935 | -97.18900 | 20430 ft | 380 kts | 197° |
| 2026-05-08 20:20 | 32.24296 | -97.19335 | 20834 ft | 385 kts | 192° |
| 2026-05-08 20:21 | 32.21614 | -97.19623 | 21214 ft | 388 kts | 191° |
| 2026-05-08 20:21 | 32.18914 | -97.19904 | 21601 ft | 390 kts | 191° |
| 2026-05-08 20:21 | 32.16205 | -97.20200 | 21974 ft | 391 kts | 192° |
| 2026-05-08 20:21 | 32.13496 | -97.20555 | 22350 ft | 391 kts | 193° |
| 2026-05-08 20:22 | 32.10800 | -97.20912 | 22839 ft | 390 kts | 194° |
| 2026-05-08 20:22 | 32.08095 | -97.21272 | 23215 ft | 392 kts | 194° |
| 2026-05-08 20:22 | 32.05373 | -97.21635 | 23567 ft | 394 kts | 194° |
| 2026-05-08 20:22 | 32.03568 | -97.21879 | 23767 ft | 395 kts | 194° |
| 2026-05-08 20:23 | 31.99915 | -97.22366 | 24149 ft | 396 kts | 194° |
| 2026-05-08 20:23 | 31.97168 | -97.22730 | 24438 ft | 397 kts | 194° |
| 2026-05-08 20:23 | 31.94421 | -97.23095 | 24714 ft | 398 kts | 194° |
| 2026-05-08 20:23 | 31.91662 | -97.23465 | 24979 ft | 399 kts | 194° |
| 2026-05-08 20:24 | 31.88900 | -97.23832 | 25248 ft | 400 kts | 194° |
| 2026-05-08 20:24 | 31.86130 | -97.24198 | 25517 ft | 400 kts | 195° |
| 2026-05-08 20:24 | 31.83403 | -97.24558 | 25833 ft | 399 kts | 195° |
| 2026-05-08 20:24 | 31.80639 | -97.24923 | 26072 ft | 400 kts | 195° |
| 2026-05-08 20:25 | 31.77867 | -97.25294 | 26298 ft | 401 kts | 195° |
| 2026-05-08 20:25 | 31.75087 | -97.25662 | 26529 ft | 402 kts | 195° |
| 2026-05-08 20:25 | 31.72304 | -97.26028 | 26746 ft | 403 kts | 195° |
| 2026-05-08 20:25 | 31.69508 | -97.26393 | 26981 ft | 404 kts | 195° |
| 2026-05-08 20:26 | 31.66739 | -97.26878 | 27174 ft | 398 kts | 201° |
| 2026-05-08 20:26 | 31.64099 | -97.27795 | 27374 ft | 394 kts | 206° |
| 2026-05-08 20:26 | 31.61534 | -97.28919 | 27569 ft | 392 kts | 209° |
| 2026-05-08 20:26 | 31.59023 | -97.30161 | 27752 ft | 392 kts | 210° |
| 2026-05-08 20:27 | 31.56515 | -97.31410 | 28023 ft | 392 kts | 210° |
| 2026-05-08 20:27 | 31.54004 | -97.32659 | 28226 ft | 393 kts | 210° |
| 2026-05-08 20:27 | 31.51467 | -97.33873 | 28403 ft | 394 kts | 209° |
| 2026-05-08 20:27 | 31.48919 | -97.35077 | 28576 ft | 395 kts | 208° |
| 2026-05-08 20:28 | 31.46364 | -97.36280 | 28745 ft | 396 kts | 209° |
| 2026-05-08 20:28 | 31.43803 | -97.37484 | 28909 ft | 397 kts | 208° |
| 2026-05-08 20:28 | 31.41238 | -97.38687 | 29080 ft | 398 kts | 208° |
| 2026-05-08 20:28 | 31.38665 | -97.39897 | 29223 ft | 398 kts | 208° |
| 2026-05-08 20:29 | 31.36094 | -97.41105 | 29378 ft | 399 kts | 208° |
| 2026-05-08 20:29 | 31.33512 | -97.42315 | 29527 ft | 400 kts | 208° |
| 2026-05-08 20:29 | 31.30925 | -97.43528 | 29677 ft | 401 kts | 208° |
| 2026-05-08 20:29 | 31.28339 | -97.44737 | 29832 ft | 401 kts | 208° |
| 2026-05-08 20:30 | 31.25750 | -97.45952 | 29966 ft | 401 kts | 208° |
| 2026-05-08 20:30 | 31.23151 | -97.47163 | 30087 ft | 402 kts | 208° |
| 2026-05-08 20:30 | 31.20556 | -97.48377 | 30261 ft | 402 kts | 208° |
| 2026-05-08 20:30 | 31.17948 | -97.49595 | 30420 ft | 403 kts | 208° |
| 2026-05-08 20:31 | 31.13615 | -97.51620 | 30649 ft | 404 kts | 208° |
| 2026-05-08 20:31 | 31.10998 | -97.52841 | 30781 ft | 405 kts | 208° |
| 2026-05-08 20:31 | 31.08376 | -97.54061 | 30926 ft | 406 kts | 208° |
| 2026-05-08 20:32 | 31.04876 | -97.55627 | 31098 ft | 411 kts | 203° |
| 2026-05-08 20:32 | 31.01984 | -97.56076 | 31175 ft | 427 kts | 190° |
| 2026-05-08 20:32 | 30.98988 | -97.56072 | 31303 ft | 432 kts | 188° |
| 2026-05-08 20:32 | 30.96952 | -97.56000 | 31389 ft | 433 kts | 187° |
| 2026-05-08 20:33 | 30.93973 | -97.55847 | 31500 ft | 435 kts | 187° |
| 2026-05-08 20:33 | 30.90948 | -97.55672 | 31693 ft | 434 kts | 186° |
| 2026-05-08 20:33 | 30.87931 | -97.55472 | 31875 ft | 434 kts | 186° |
| 2026-05-08 20:33 | 30.84914 | -97.55273 | 32032 ft | 433 kts | 187° |
| 2026-05-08 20:34 | 30.81916 | -97.55141 | 32199 ft | 431 kts | 188° |
| 2026-05-08 20:34 | 30.78911 | -97.55035 | 32357 ft | 431 kts | 188° |
| 2026-05-08 20:34 | 30.72925 | -97.54811 | 32628 ft | 430 kts | 188° |
| 2026-05-08 20:35 | 30.69936 | -97.54698 | 32750 ft | 430 kts | 188° |
| 2026-05-08 20:35 | 30.66946 | -97.54585 | 32899 ft | 430 kts | 188° |
| 2026-05-08 20:35 | 30.63963 | -97.54472 | 33046 ft | 429 kts | 188° |
| 2026-05-08 20:35 | 30.60977 | -97.54358 | 33190 ft | 429 kts | 188° |
| 2026-05-08 20:36 | 30.57993 | -97.54245 | 33332 ft | 429 kts | 188° |
| 2026-05-08 20:36 | 30.55011 | -97.54131 | 33460 ft | 428 kts | 189° |
| 2026-05-08 20:36 | 30.52037 | -97.54018 | 33600 ft | 428 kts | 189° |
| 2026-05-08 20:36 | 30.49056 | -97.53907 | 33730 ft | 428 kts | 189° |
| 2026-05-08 20:37 | 30.46121 | -97.53796 | 33857 ft | 427 kts | 189° |
| 2026-05-08 20:37 | 30.43151 | -97.53684 | 33974 ft | 427 kts | 189° |
| 2026-05-08 20:37 | 30.40183 | -97.53571 | 34098 ft | 427 kts | 189° |
| 2026-05-08 20:37 | 30.37217 | -97.53460 | 34234 ft | 426 kts | 189° |
| 2026-05-08 20:38 | 30.34257 | -97.53349 | 34347 ft | 425 kts | 189° |
| 2026-05-08 20:38 | 30.31304 | -97.53237 | 34454 ft | 425 kts | 189° |
| 2026-05-08 20:38 | 30.28348 | -97.53125 | 34572 ft | 424 kts | 189° |
| 2026-05-08 20:38 | 30.25401 | -97.53014 | 34678 ft | 424 kts | 189° |
| 2026-05-08 20:39 | 30.22451 | -97.52902 | 34808 ft | 424 kts | 189° |
| 2026-05-08 20:39 | 30.16540 | -97.52683 | 34852 ft | 426 kts | 189° |
| 2026-05-08 20:40 | 30.10588 | -97.52460 | 34887 ft | 429 kts | 189° |
| 2026-05-08 20:40 | 30.04595 | -97.52239 | 34894 ft | 432 kts | 189° |
| 2026-05-08 20:41 | 29.98586 | -97.52016 | 34923 ft | 436 kts | 189° |
| 2026-05-08 20:41 | 29.92483 | -97.51792 | 34951 ft | 441 kts | 189° |
| 2026-05-08 20:42 | 29.86319 | -97.51560 | 34911 ft | 445 kts | 189° |
| 2026-05-08 20:42 | 29.80126 | -97.51332 | 34899 ft | 446 kts | 189° |
| 2026-05-08 20:43 | 29.73905 | -97.51101 | 34896 ft | 447 kts | 189° |
| 2026-05-08 20:43 | 29.67704 | -97.50868 | 34888 ft | 443 kts | 189° |
| 2026-05-08 20:44 | 29.61583 | -97.50642 | 34887 ft | 437 kts | 189° |
| 2026-05-08 20:44 | 29.55575 | -97.50420 | 34878 ft | 432 kts | 190° |
| 2026-05-08 20:45 | 29.49555 | -97.50196 | 34876 ft | 428 kts | 190° |
| 2026-05-08 20:45 | 29.43667 | -97.49978 | 34876 ft | 424 kts | 190° |
| 2026-05-08 20:46 | 29.37783 | -97.49761 | 34878 ft | 421 kts | 190° |
| 2026-05-08 20:46 | 29.31934 | -97.49546 | 34851 ft | 418 kts | 190° |
| 2026-05-08 20:47 | 29.26136 | -97.49333 | 34866 ft | 415 kts | 190° |
| 2026-05-08 20:47 | 29.20367 | -97.49120 | 34875 ft | 414 kts | 190° |
| 2026-05-08 20:48 | 29.14609 | -97.48910 | 34870 ft | 414 kts | 190° |
| 2026-05-08 20:48 | 29.08877 | -97.48700 | 34880 ft | 415 kts | 190° |
| 2026-05-08 20:49 | 29.03075 | -97.48488 | 34844 ft | 417 kts | 190° |
| 2026-05-08 20:49 | 28.97272 | -97.48278 | 34869 ft | 418 kts | 190° |
| 2026-05-08 20:50 | 28.91448 | -97.48066 | 34871 ft | 419 kts | 190° |
| 2026-05-08 20:50 | 28.85611 | -97.47855 | 34871 ft | 420 kts | 190° |
| 2026-05-08 20:51 | 28.79759 | -97.47643 | 34876 ft | 421 kts | 190° |
| 2026-05-08 20:51 | 28.73885 | -97.47428 | 34847 ft | 422 kts | 189° |
| 2026-05-08 20:52 | 28.68010 | -97.47217 | 34862 ft | 423 kts | 189° |
| 2026-05-08 20:52 | 28.62117 | -97.47004 | 34860 ft | 424 kts | 189° |
| 2026-05-08 20:53 | 28.56213 | -97.46788 | 34866 ft | 425 kts | 189° |
| 2026-05-08 20:53 | 28.50295 | -97.46573 | 34865 ft | 426 kts | 189° |
| 2026-05-08 20:54 | 28.44371 | -97.46364 | 34837 ft | 426 kts | 189° |
| 2026-05-08 20:54 | 28.38439 | -97.46151 | 34857 ft | 427 kts | 189° |
| 2026-05-08 20:55 | 28.32538 | -97.45939 | 34859 ft | 427 kts | 189° |
| 2026-05-08 20:55 | 28.26585 | -97.45723 | 34859 ft | 428 kts | 189° |
| 2026-05-08 20:56 | 28.20623 | -97.45507 | 34853 ft | 429 kts | 189° |
| 2026-05-08 20:56 | 28.14650 | -97.45296 | 34834 ft | 429 kts | 188° |
| 2026-05-08 20:57 | 28.08668 | -97.45081 | 34850 ft | 430 kts | 188° |
| 2026-05-08 20:57 | 28.02690 | -97.44866 | 34854 ft | 430 kts | 188° |
| 2026-05-08 20:58 | 27.96696 | -97.44651 | 34850 ft | 431 kts | 188° |
| 2026-05-08 20:58 | 27.90699 | -97.44435 | 34850 ft | 432 kts | 188° |
| 2026-05-08 20:59 | 27.84734 | -97.44224 | 34832 ft | 432 kts | 188° |
| 2026-05-08 20:59 | 27.78721 | -97.44008 | 34843 ft | 432 kts | 188° |
| 2026-05-08 21:00 | 27.72704 | -97.43795 | 34842 ft | 433 kts | 188° |
| 2026-05-08 21:00 | 27.66676 | -97.43578 | 34845 ft | 433 kts | 188° |
| 2026-05-08 21:01 | 27.60645 | -97.43364 | 34842 ft | 434 kts | 188° |
| 2026-05-08 21:01 | 27.54606 | -97.43152 | 34839 ft | 434 kts | 188° |
| 2026-05-08 21:02 | 27.48557 | -97.42937 | 34833 ft | 435 kts | 188° |
| 2026-05-08 21:02 | 27.42510 | -97.42720 | 34835 ft | 435 kts | 188° |
| 2026-05-08 21:03 | 27.36460 | -97.42507 | 34836 ft | 435 kts | 188° |
| 2026-05-08 21:03 | 27.30392 | -97.42291 | 34834 ft | 436 kts | 188° |
| 2026-05-08 21:04 | 27.24329 | -97.42085 | 34822 ft | 436 kts | 188° |
| 2026-05-08 21:04 | 27.18265 | -97.41866 | 34832 ft | 436 kts | 187° |
| 2026-05-08 21:05 | 27.12199 | -97.41652 | 34838 ft | 437 kts | 188° |
| 2026-05-08 21:05 | 27.06118 | -97.41438 | 34839 ft | 437 kts | 188° |
| 2026-05-08 21:06 | 27.00036 | -97.41222 | 34840 ft | 437 kts | 188° |
| 2026-05-08 21:06 | 26.93950 | -97.41014 | 34826 ft | 438 kts | 187° |
| 2026-05-08 21:07 | 26.87861 | -97.40796 | 34834 ft | 438 kts | 187° |
| 2026-05-08 21:07 | 26.81763 | -97.40583 | 34836 ft | 439 kts | 187° |
| 2026-05-08 21:08 | 26.75693 | -97.40369 | 34835 ft | 439 kts | 187° |
| 2026-05-08 21:08 | 26.69576 | -97.40153 | 34836 ft | 439 kts | 187° |
| 2026-05-08 21:09 | 26.63458 | -97.39946 | 34827 ft | 440 kts | 187° |
| 2026-05-08 21:09 | 26.57339 | -97.39727 | 34832 ft | 440 kts | 187° |
| 2026-05-08 21:10 | 26.51218 | -97.39514 | 34837 ft | 440 kts | 187° |
| 2026-05-08 21:10 | 26.45090 | -97.39301 | 34839 ft | 441 kts | 187° |
| 2026-05-08 21:11 | 26.38970 | -97.39122 | 34842 ft | 439 kts | 188° |
| 2026-05-08 21:11 | 26.32857 | -97.39080 | 34828 ft | 443 kts | 185° |
| 2026-05-08 21:12 | 26.26727 | -97.38400 | 34840 ft | 449 kts | 180° |
| 2026-05-08 21:12 | 26.20542 | -97.37229 | 34841 ft | 451 kts | 179° |
| 2026-05-08 21:13 | 26.14353 | -97.36069 | 34843 ft | 450 kts | 179° |
| 2026-05-08 21:13 | 26.08159 | -97.34972 | 34843 ft | 451 kts | 179° |
| 2026-05-08 21:14 | 26.01961 | -97.33883 | 34829 ft | 451 kts | 179° |
| 2026-05-08 21:14 | 25.95761 | -97.32788 | 34820 ft | 451 kts | 179° |
| 2026-05-08 21:15 | 25.89549 | -97.31692 | 34822 ft | 452 kts | 179° |
| 2026-05-08 21:15 | 25.83339 | -97.30602 | 34822 ft | 452 kts | 179° |
| 2026-05-08 21:16 | 25.77167 | -97.29516 | 34821 ft | 452 kts | 179° |
| 2026-05-08 21:16 | 25.70950 | -97.28432 | 34819 ft | 452 kts | 179° |
| 2026-05-08 21:17 | 25.64731 | -97.27339 | 34824 ft | 453 kts | 179° |
| 2026-05-08 21:17 | 25.58503 | -97.26244 | 34826 ft | 453 kts | 179° |
| 2026-05-08 21:18 | 25.52267 | -97.25156 | 34826 ft | 454 kts | 179° |
| 2026-05-08 21:18 | 25.46029 | -97.24065 | 34799 ft | 454 kts | 178° |
| 2026-05-08 21:19 | 25.40842 | -97.23165 | 34814 ft | 454 kts | 178° |
| 2026-05-08 21:19 | 25.34597 | -97.22071 | 34819 ft | 454 kts | 178° |
| 2026-05-08 21:20 | 25.28354 | -97.20981 | 34818 ft | 455 kts | 178° |
| 2026-05-08 21:20 | 25.22102 | -97.19893 | 34818 ft | 455 kts | 178° |
| 2026-05-08 21:21 | 25.15846 | -97.18807 | 34816 ft | 455 kts | 178° |
| 2026-05-08 21:21 | 25.09591 | -97.17723 | 34809 ft | 455 kts | 178° |
| 2026-05-08 21:22 | 25.03323 | -97.16631 | 34811 ft | 455 kts | 178° |
| 2026-05-08 21:22 | 24.97062 | -97.15544 | 34812 ft | 456 kts | 178° |
| 2026-05-08 21:23 | 24.90792 | -97.14460 | 34811 ft | 456 kts | 178° |
| 2026-05-08 21:23 | 24.84520 | -97.13376 | 34818 ft | 456 kts | 178° |
| 2026-05-08 21:24 | 24.78284 | -97.12300 | 34814 ft | 457 kts | 177° |
| 2026-05-08 21:24 | 24.71999 | -97.11213 | 34819 ft | 458 kts | 178° |
| 2026-05-08 21:25 | 24.65680 | -97.10124 | 34814 ft | 460 kts | 177° |
| 2026-05-08 21:25 | 24.59347 | -97.09033 | 34819 ft | 461 kts | 178° |
| 2026-05-08 21:26 | 24.52999 | -97.07939 | 34820 ft | 462 kts | 178° |
| 2026-05-08 21:26 | 24.46642 | -97.06845 | 34819 ft | 463 kts | 177° |
| 2026-05-08 21:27 | 24.40265 | -97.05750 | 34818 ft | 464 kts | 177° |
| 2026-05-08 21:27 | 24.33925 | -97.04661 | 34820 ft | 464 kts | 178° |
| 2026-05-08 21:28 | 24.27539 | -97.03567 | 34817 ft | 465 kts | 177° |
| 2026-05-08 21:28 | 24.21148 | -97.02476 | 34802 ft | 465 kts | 177° |
| 2026-05-08 21:29 | 24.14747 | -97.01384 | 34811 ft | 465 kts | 177° |
| 2026-05-08 21:29 | 24.08349 | -97.00285 | 34814 ft | 466 kts | 177° |
| 2026-05-08 21:30 | 24.01940 | -96.99191 | 34820 ft | 466 kts | 177° |
| 2026-05-08 21:30 | 23.95525 | -96.98099 | 34819 ft | 466 kts | 177° |
| 2026-05-08 21:31 | 23.89154 | -96.97014 | 34809 ft | 466 kts | 177° |
| 2026-05-08 21:31 | 23.82737 | -96.95921 | 34814 ft | 467 kts | 176° |
| 2026-05-08 21:32 | 23.76308 | -96.94826 | 34809 ft | 467 kts | 177° |
| 2026-05-08 21:32 | 23.69876 | -96.93736 | 34815 ft | 468 kts | 176° |
| 2026-05-08 21:33 | 23.63446 | -96.92646 | 34815 ft | 468 kts | 176° |
| 2026-05-08 21:33 | 23.57006 | -96.91555 | 34805 ft | 468 kts | 176° |
| 2026-05-08 21:34 | 23.50563 | -96.90463 | 34810 ft | 468 kts | 176° |
| 2026-05-08 21:34 | 23.44120 | -96.89372 | 34814 ft | 469 kts | 176° |
| 2026-05-08 21:35 | 23.37671 | -96.88280 | 34815 ft | 469 kts | 176° |
| 2026-05-08 21:35 | 23.31260 | -96.87198 | 34809 ft | 469 kts | 176° |
| 2026-05-08 21:36 | 23.24809 | -96.86115 | 34805 ft | 469 kts | 176° |
| 2026-05-08 21:36 | 23.18352 | -96.85023 | 34807 ft | 470 kts | 176° |
| 2026-05-08 21:37 | 23.11889 | -96.83933 | 34810 ft | 470 kts | 176° |
| 2026-05-08 21:37 | 23.05422 | -96.82845 | 34814 ft | 470 kts | 176° |
| 2026-05-08 21:38 | 22.98950 | -96.81758 | 34816 ft | 470 kts | 176° |
| 2026-05-08 21:38 | 22.92479 | -96.80674 | 34806 ft | 471 kts | 176° |
| 2026-05-08 21:39 | 22.86006 | -96.79586 | 34809 ft | 471 kts | 176° |
| 2026-05-08 21:39 | 22.79529 | -96.78503 | 34808 ft | 471 kts | 176° |
| 2026-05-08 21:40 | 22.73089 | -96.77426 | 34809 ft | 471 kts | 176° |
| 2026-05-08 21:40 | 22.66609 | -96.76339 | 34809 ft | 471 kts | 176° |
| 2026-05-08 21:41 | 22.56878 | -96.74716 | 34805 ft | 472 kts | 175° |
| 2026-05-08 21:41 | 22.50380 | -96.73631 | 34808 ft | 472 kts | 175° |
| 2026-05-08 21:42 | 22.43885 | -96.72547 | 34808 ft | 472 kts | 175° |
| 2026-05-08 21:42 | 22.37390 | -96.71466 | 34808 ft | 473 kts | 175° |
| 2026-05-08 21:43 | 22.30884 | -96.70385 | 34794 ft | 473 kts | 175° |
| 2026-05-08 21:43 | 22.24385 | -96.69306 | 34807 ft | 473 kts | 175° |
| 2026-05-08 21:44 | 22.17866 | -96.68221 | 34811 ft | 473 kts | 175° |
| 2026-05-08 21:44 | 22.11351 | -96.67141 | 34803 ft | 473 kts | 175° |
| 2026-05-08 21:45 | 22.04833 | -96.66062 | 34805 ft | 474 kts | 175° |
| 2026-05-08 21:45 | 21.98316 | -96.64982 | 34793 ft | 474 kts | 175° |
| 2026-05-08 21:46 | 21.91836 | -96.63910 | 34800 ft | 474 kts | 175° |
| 2026-05-08 21:46 | 21.85315 | -96.62830 | 34796 ft | 474 kts | 175° |
| 2026-05-08 21:47 | 21.78786 | -96.61752 | 34800 ft | 475 kts | 175° |
| 2026-05-08 21:47 | 21.72251 | -96.60677 | 34800 ft | 475 kts | 175° |
| 2026-05-08 21:48 | 21.65719 | -96.59601 | 34792 ft | 475 kts | 175° |
| 2026-05-08 21:48 | 21.59182 | -96.58529 | 34797 ft | 475 kts | 175° |
| 2026-05-08 21:49 | 21.52649 | -96.57448 | 34797 ft | 475 kts | 175° |
| 2026-05-08 21:49 | 21.46107 | -96.56371 | 34800 ft | 476 kts | 175° |
| 2026-05-08 21:50 | 21.39562 | -96.55300 | 34797 ft | 476 kts | 175° |
| 2026-05-08 21:50 | 21.33018 | -96.54226 | 34798 ft | 476 kts | 175° |
| 2026-05-08 21:51 | 21.26465 | -96.53149 | 34799 ft | 476 kts | 175° |
| 2026-05-08 21:51 | 21.19962 | -96.52086 | 34798 ft | 476 kts | 175° |
| 2026-05-08 21:52 | 21.13410 | -96.51014 | 34796 ft | 476 kts | 175° |
| 2026-05-08 21:52 | 21.06850 | -96.49939 | 34796 ft | 476 kts | 175° |
| 2026-05-08 21:53 | 21.00299 | -96.48871 | 34788 ft | 476 kts | 175° |
| 2026-05-08 21:53 | 20.93743 | -96.47802 | 34793 ft | 476 kts | 174° |
| 2026-05-08 21:54 | 20.87181 | -96.46731 | 34792 ft | 477 kts | 174° |
| 2026-05-08 21:54 | 20.80615 | -96.45659 | 34793 ft | 477 kts | 174° |
| 2026-05-08 21:55 | 20.74058 | -96.44594 | 34791 ft | 477 kts | 174° |
| 2026-05-08 21:56 | 20.64259 | -96.43004 | 34786 ft | 477 kts | 174° |
| 2026-05-08 21:56 | 20.57692 | -96.41933 | 34786 ft | 477 kts | 174° |
| 2026-05-08 21:57 | 20.51122 | -96.40870 | 34791 ft | 477 kts | 174° |
| 2026-05-08 21:57 | 20.44546 | -96.39802 | 34787 ft | 477 kts | 174° |
| 2026-05-08 21:58 | 20.37976 | -96.38736 | 34787 ft | 478 kts | 174° |
| 2026-05-08 21:58 | 20.31403 | -96.37676 | 34787 ft | 478 kts | 174° |
| 2026-05-08 21:59 | 20.24830 | -96.36608 | 34788 ft | 477 kts | 174° |
| 2026-05-08 21:59 | 20.18301 | -96.35557 | 34791 ft | 477 kts | 174° |
| 2026-05-08 22:00 | 20.11733 | -96.34496 | 34791 ft | 477 kts | 174° |
| 2026-05-08 22:00 | 20.05162 | -96.33434 | 34793 ft | 477 kts | 174° |
| 2026-05-08 22:01 | 19.98591 | -96.32377 | 34790 ft | 477 kts | 174° |
| 2026-05-08 22:01 | 19.92023 | -96.31317 | 34793 ft | 477 kts | 174° |
| 2026-05-08 22:02 | 19.85461 | -96.30262 | 34791 ft | 477 kts | 174° |
| 2026-05-08 22:02 | 19.78895 | -96.29207 | 34793 ft | 477 kts | 174° |
| 2026-05-08 22:03 | 19.72330 | -96.28154 | 34796 ft | 477 kts | 174° |
| 2026-05-08 22:03 | 19.65759 | -96.27099 | 34789 ft | 477 kts | 174° |
| 2026-05-08 22:04 | 19.59192 | -96.26046 | 34789 ft | 477 kts | 174° |
| 2026-05-08 22:04 | 19.52621 | -96.25047 | 34787 ft | 475 kts | 178° |
| 2026-05-08 22:05 | 19.46052 | -96.25216 | 34796 ft | 472 kts | 187° |
| 2026-05-08 22:05 | 19.39546 | -96.25771 | 34800 ft | 472 kts | 185° |
| 2026-05-08 22:06 | 19.32979 | -96.26091 | 34792 ft | 473 kts | 185° |
| 2026-05-08 22:06 | 19.26407 | -96.26440 | 34800 ft | 473 kts | 185° |
| 2026-05-08 22:07 | 19.20896 | -96.26729 | 34814 ft | 473 kts | 185° |
| 2026-05-08 22:07 | 19.14355 | -96.27071 | 34808 ft | 474 kts | 185° |
| 2026-05-08 22:08 | 19.07767 | -96.27415 | 34807 ft | 474 kts | 185° |
| 2026-05-08 22:08 | 19.01173 | -96.27757 | 34788 ft | 474 kts | 185° |
| 2026-05-08 22:09 | 18.94576 | -96.28101 | 34764 ft | 475 kts | 185° |
| 2026-05-08 22:09 | 18.87973 | -96.28447 | 34765 ft | 475 kts | 185° |
| 2026-05-08 22:10 | 18.81367 | -96.28791 | 34756 ft | 475 kts | 185° |
| 2026-05-08 22:10 | 18.74757 | -96.29153 | 34756 ft | 475 kts | 187° |
| 2026-05-08 22:11 | 18.68276 | -96.30371 | 34752 ft | 472 kts | 196° |
| 2026-05-08 22:11 | 18.61918 | -96.32150 | 34745 ft | 473 kts | 196° |
| 2026-05-08 22:12 | 18.55512 | -96.33782 | 34738 ft | 474 kts | 195° |
| 2026-05-08 22:12 | 18.49137 | -96.35385 | 34739 ft | 474 kts | 195° |
| 2026-05-08 22:13 | 18.42712 | -96.36997 | 34742 ft | 475 kts | 195° |
| 2026-05-08 22:13 | 18.36279 | -96.38609 | 34742 ft | 475 kts | 195° |
| 2026-05-08 22:14 | 18.29846 | -96.40223 | 34762 ft | 476 kts | 195° |
| 2026-05-08 22:14 | 18.23400 | -96.41835 | 34766 ft | 476 kts | 195° |
| 2026-05-08 22:15 | 18.16937 | -96.43453 | 34765 ft | 477 kts | 195° |
| 2026-05-08 22:15 | 18.10555 | -96.45047 | 34460 ft | 472 kts | 195° |
| 2026-05-08 22:15 | 18.07344 | -96.45850 | 33864 ft | 475 kts | 195° |
| 2026-05-08 22:16 | 18.04123 | -96.46655 | 33280 ft | 477 kts | 195° |
| 2026-05-08 22:16 | 18.00881 | -96.47438 | 32708 ft | 477 kts | 194° |
| 2026-05-08 22:16 | 17.97669 | -96.48205 | 32253 ft | 468 kts | 195° |
| 2026-05-08 22:16 | 17.94510 | -96.48968 | 31492 ft | 465 kts | 195° |
| 2026-05-08 22:17 | 17.91353 | -96.49760 | 30618 ft | 466 kts | 195° |
| 2026-05-08 22:17 | 17.88231 | -96.50536 | 30082 ft | 459 kts | 195° |
| 2026-05-08 22:17 | 17.85137 | -96.51308 | 29397 ft | 455 kts | 195° |
| 2026-05-08 22:17 | 17.82068 | -96.52071 | 28269 ft | 457 kts | 195° |
| 2026-05-08 22:18 | 17.78939 | -96.52849 | 27301 ft | 460 kts | 195° |
| 2026-05-08 22:18 | 17.75871 | -96.53614 | 26835 ft | 447 kts | 194° |
| 2026-05-08 22:18 | 17.72876 | -96.54369 | 26069 ft | 439 kts | 194° |
| 2026-05-08 22:18 | 17.69905 | -96.55125 | 25050 ft | 439 kts | 194° |
| 2026-05-08 22:19 | 17.66939 | -96.55887 | 23996 ft | 440 kts | 194° |
| 2026-05-08 22:19 | 17.64014 | -96.56641 | 23327 ft | 432 kts | 193° |
| 2026-05-08 22:19 | 17.61137 | -96.57354 | 22836 ft | 418 kts | 193° |
| 2026-05-08 22:19 | 17.58343 | -96.58053 | 22335 ft | 407 kts | 193° |
| 2026-05-08 22:20 | 17.55621 | -96.58725 | 21811 ft | 397 kts | 193° |
| 2026-05-08 22:20 | 17.52944 | -96.59393 | 21079 ft | 394 kts | 193° |
| 2026-05-08 22:20 | 17.50279 | -96.60053 | 20438 ft | 390 kts | 193° |
| 2026-05-08 22:20 | 17.47660 | -96.60705 | 19849 ft | 385 kts | 193° |
| 2026-05-08 22:21 | 17.45058 | -96.61346 | 19168 ft | 384 kts | 193° |
| 2026-05-08 22:21 | 17.42464 | -96.61990 | 18520 ft | 382 kts | 193° |
| 2026-05-08 22:21 | 17.39895 | -96.62628 | 17880 ft | 380 kts | 193° |
| 2026-05-08 22:21 | 17.37330 | -96.63259 | 17248 ft | 377 kts | 194° |
| 2026-05-08 22:22 | 17.34798 | -96.63889 | 16684 ft | 372 kts | 194° |
| 2026-05-08 22:22 | 17.32294 | -96.64510 | 16089 ft | 368 kts | 194° |
| 2026-05-08 22:22 | 17.29803 | -96.65129 | 15560 ft | 366 kts | 193° |
| 2026-05-08 22:22 | 17.27340 | -96.65737 | 15167 ft | 363 kts | 193° |
| 2026-05-08 22:23 | 17.24879 | -96.66347 | 14722 ft | 363 kts | 193° |
| 2026-05-08 22:23 | 17.22418 | -96.66955 | 14333 ft | 361 kts | 193° |
| 2026-05-08 22:23 | 17.19980 | -96.67556 | 13968 ft | 358 kts | 193° |
| 2026-05-08 22:23 | 17.17553 | -96.68156 | 13515 ft | 358 kts | 193° |
| 2026-05-08 22:24 | 17.15139 | -96.68754 | 13136 ft | 355 kts | 193° |
| 2026-05-08 22:24 | 17.12744 | -96.69347 | 12759 ft | 351 kts | 193° |
| 2026-05-08 22:24 | 17.10381 | -96.69926 | 12432 ft | 346 kts | 192° |
| 2026-05-08 22:24 | 17.08095 | -96.70486 | 12296 ft | 330 kts | 192° |
| 2026-05-08 22:25 | 17.05919 | -96.71029 | 12215 ft | 313 kts | 192° |
| 2026-05-08 22:25 | 17.03849 | -96.71539 | 12175 ft | 298 kts | 193° |
| 2026-05-08 22:25 | 17.01878 | -96.72025 | 12149 ft | 284 kts | 192° |
| 2026-05-08 22:25 | 16.99995 | -96.72483 | 12137 ft | 272 kts | 192° |
| 2026-05-08 22:26 | 16.98194 | -96.72923 | 12143 ft | 260 kts | 192° |
| 2026-05-08 22:26 | 16.96460 | -96.72997 | 11980 ft | 253 kts | 168° |
| 2026-05-08 22:26 | 16.94766 | -96.72514 | 11698 ft | 254 kts | 161° |
| 2026-05-08 22:26 | 16.93106 | -96.71900 | 11485 ft | 253 kts | 159° |
| 2026-05-08 22:27 | 16.91451 | -96.71296 | 11235 ft | 253 kts | 160° |
| 2026-05-08 22:27 | 16.89800 | -96.70735 | 11054 ft | 249 kts | 161° |
| 2026-05-08 22:27 | 16.88125 | -96.70246 | 10734 ft | 248 kts | 169° |
| 2026-05-08 22:27 | 16.86436 | -96.70495 | 10223 ft | 254 kts | 206° |
| 2026-05-08 22:28 | 16.85187 | -96.71778 | 9806 ft | 259 kts | 239° |
| 2026-05-08 22:28 | 16.84571 | -96.73553 | 9279 ft | 265 kts | 264° |
| 2026-05-08 22:28 | 16.84899 | -96.75434 | 8729 ft | 269 kts | 298° |
| 2026-05-08 22:28 | 16.86171 | -96.76843 | 8200 ft | 269 kts | 333° |
| 2026-05-08 22:29 | 16.87942 | -96.77298 | 7949 ft | 260 kts | 8° |
| 2026-05-08 22:29 | 16.89580 | -96.76734 | 7649 ft | 242 kts | 31° |
| 2026-05-08 22:29 | 16.90918 | -96.75828 | 7379 ft | 221 kts | 39° |
| 2026-05-08 22:29 | 16.92222 | -96.75056 | 7020 ft | 204 kts | 32° |
| 2026-05-08 22:30 | 16.93494 | -96.74502 | 6551 ft | 190 kts | 27° |
| 2026-05-08 22:30 | 16.94687 | -96.74065 | 6379 ft | 171 kts | 18° |
| 2026-05-08 22:30 | 16.95809 | -96.73775 | 5772 ft | 162 kts | 16° |
| 2026-05-08 22:30 | 16.96907 | -96.73457 | 5436 ft | 164 kts | 19° |
| 2026-05-08 22:31 | 16.98021 | -96.73132 | 5155 ft | 171 kts | 18° |
| 2026-05-08 22:31 | 16.99178 | -96.72799 | 4987 ft | 168 kts | 17° |
| 2026-05-08 22:31 | 17.00147 | -96.72517 | 4983 ft | 114 kts | 15° |
| 2026-05-08 22:31 | 17.00614 | -96.72382 | 4991 ft | 53 kts | 15° |
| 2026-05-08 22:32 | 17.00857 | -96.72353 | 4994 ft | 20 kts | 347° |
| 2026-05-08 22:32 | 17.00916 | -96.72311 | 4995 ft | 11 kts | 97° |
| 2026-05-08 22:32 | 17.00895 | -96.72286 | 4994 ft | 6 kts | 169° |
| 2026-05-08 22:32 | 17.00799 | -96.72311 | 4994 ft | 26 kts | 198° |
| 2026-05-08 22:33 | 17.00596 | -96.72377 | 4991 ft | 31 kts | 197° |
| 2026-05-08 22:33 | 17.00397 | -96.72446 | 4987 ft | 26 kts | 197° |
| 2026-05-08 22:33 | 17.00309 | -96.72400 | 4986 ft | 15 kts | 107° |
| 2026-05-08 22:33 | 17.00281 | -96.72306 | 4987 ft | 12 kts | 119° |
| 2026-05-08 22:34 | 17.00219 | -96.72289 | 4987 ft | 9 kts | 195° |
| 2026-05-08 22:34 | 17.00201 | -96.72286 | 4987 ft | 3 kts | 143° |
| 2026-05-08 22:34 | 17.00195 | -96.72277 | 4987 ft | 0 kts | 112° |